Time;durP1;ratioP1;P1;durP2;ratioP2;P2;SDS_P1;SDS_P2;PMS_P1;PMS_P2;Temp;Humidity;BMP_temperature;BMP_pressure;BME280_temperature;BME280_humidity;BME280_pressure;Samples;Min_cycle;Max_cycle;Signal;HPM_P1;HPM_P2
2023/05/26 00:00:16;;;;;;;8.95;2.33;;;;;;;12.66;100.00;94683.06;5108673;28;20208;-79
2023/05/26 00:02:43;;;;;;;5.03;2.90;;;;;;;12.63;100.00;94683.72;5104984;28;20212;-79
2023/05/26 00:05:10;;;;;;;4.43;2.63;;;;;;;12.53;100.00;94681.47;5098889;28;20293;-77
2023/05/26 00:07:39;;;;;;;5.00;2.60;;;;;;;12.46;100.00;94683.94;5110836;28;20201;-77
2023/05/26 00:10:07;;;;;;;5.10;2.67;;;;;;;12.49;100.00;94688.69;5110704;28;20591;-79
2023/05/26 00:12:34;;;;;;;8.32;2.22;;;;;;;12.63;100.00;94691.88;5103108;28;20646;-79
2023/05/26 00:15:01;;;;;;;4.72;2.75;;;;;;;12.67;100.00;94686.56;5107628;28;20194;-78
2023/05/26 00:17:29;;;;;;;4.45;2.55;;;;;;;12.65;100.00;94684.19;5110093;28;20598;-79
2023/05/26 00:19:59;;;;;;;3.40;2.45;;;;;;;12.71;100.00;94669.22;5109961;28;20255;-79
2023/05/26 00:22:26;;;;;;;2.92;2.13;;;;;;;12.73;100.00;94669.69;5110670;28;20217;-77
2023/05/26 00:24:53;;;;;;;4.28;2.70;;;;;;;12.79;100.00;94671.06;5110672;28;20565;-79
2023/05/26 00:27:20;;;;;;;4.53;2.28;;;;;;;12.67;100.00;94673.78;5110675;28;20209;-77
2023/05/26 00:29:48;;;;;;;2.78;2.10;;;;;;;12.68;100.00;94659.06;5109833;28;20208;-78
2023/05/26 00:32:16;;;;;;;6.43;2.90;;;;;;;12.67;100.00;94667.56;5109896;28;20565;-79
2023/05/26 00:34:44;;;;;;;5.50;2.85;;;;;;;12.58;100.00;94670.34;5109951;28;20222;-79
2023/05/26 00:37:11;;;;;;;4.10;2.42;;;;;;;12.54;100.00;94672.19;5110309;28;20198;-80
2023/05/26 00:39:38;;;;;;;6.72;3.05;;;;;;;12.52;100.00;94671.72;5110348;28;20198;-78
2023/05/26 00:42:05;;;;;;;4.93;2.45;;;;;;;12.39;100.00;94672.84;5109855;28;20232;-78
2023/05/26 00:44:32;;;;;;;3.20;2.47;;;;;;;12.38;100.00;94677.50;5110027;28;20615;-78
2023/05/26 00:46:59;;;;;;;7.25;2.70;;;;;;;12.23;100.00;94675.41;5109777;28;20243;-79
2023/05/26 00:49:26;;;;;;;5.18;2.85;;;;;;;12.21;100.00;94671.44;5109848;28;20202;-77
2023/05/26 00:51:54;;;;;;;6.55;3.13;;;;;;;12.22;100.00;94673.03;5109836;28;20202;-78
2023/05/26 00:54:22;;;;;;;5.20;3.08;;;;;;;12.28;100.00;94674.41;5109641;28;20198;-78
2023/05/26 00:56:51;;;;;;;5.70;3.30;;;;;;;12.34;100.00;94675.78;5099312;28;20194;-79
2023/05/26 00:59:19;;;;;;;8.15;3.03;;;;;;;12.43;100.00;94679.19;5108682;28;20205;-78
2023/05/26 01:01:46;;;;;;;3.80;2.67;;;;;;;12.46;100.00;94678.50;5110004;28;20699;-78
2023/05/26 01:04:13;;;;;;;4.05;2.75;;;;;;;12.51;100.00;94678.28;5105003;28;20210;-78
2023/05/26 01:06:40;;;;;;;4.90;3.00;;;;;;;12.50;100.00;94681.34;5107595;28;20194;-78
2023/05/26 01:09:09;;;;;;;4.43;3.08;;;;;;;12.51;100.00;94681.00;5104981;28;20245;-78
2023/05/26 01:46:26;;;;;;;5.60;3.72;;;;;;;11.64;100.00;94691.13;5133459;27;1352182;-78
2023/05/26 01:48:57;;;;;;;6.95;4.47;;;;;;;11.73;100.00;94689.16;5157036;27;20290;-78
2023/05/26 01:51:24;;;;;;;5.85;4.35;;;;;;;11.80;100.00;94688.63;5148803;27;20195;-78
2023/05/26 01:53:56;;;;;;;7.65;4.63;;;;;;;11.84;100.00;94690.34;5149088;27;20199;-77
2023/05/26 01:56:26;;;;;;;7.45;4.60;;;;;;;11.92;100.00;94689.47;5148779;27;20184;-77
2023/05/26 01:58:54;;;;;;;5.53;3.95;;;;;;;11.91;100.00;94690.59;5149386;27;20273;-77
2023/05/26 02:01:25;;;;;;;7.65;2.88;;;;;;;11.85;100.00;94691.94;5149176;27;20240;-78
2023/05/26 02:03:52;;;;;;;5.20;3.25;;;;;;;11.88;100.00;94694.00;5149032;27;20196;-78
2023/05/26 02:06:19;;;;;;;4.47;2.92;;;;;;;11.97;100.00;94689.28;5148866;27;20228;-77
2023/05/26 02:08:46;;;;;;;5.70;3.45;;;;;;;11.98;100.00;94685.44;5164349;27;20216;-78
2023/05/26 02:11:13;;;;;;;5.35;3.28;;;;;;;11.94;100.00;94700.78;5170837;27;20196;-77
2023/05/26 02:13:40;;;;;;;5.00;3.72;;;;;;;11.97;100.00;94693.91;5168465;27;20231;-78
2023/05/26 02:16:07;;;;;;;6.57;3.25;;;;;;;12.02;100.00;94697.22;5169053;27;20192;-78
2023/05/26 02:18:36;;;;;;;8.75;3.60;;;;;;;12.18;100.00;94688.41;5169413;27;20188;-78
2023/05/26 02:21:02;;;;;;;4.53;3.60;;;;;;;12.08;100.00;94695.06;5169274;27;20255;-78
2023/05/26 02:23:29;;;;;;;4.82;3.60;;;;;;;12.07;100.00;94690.75;5168962;27;20199;-78
2023/05/26 02:25:56;;;;;;;5.32;3.40;;;;;;;11.98;100.00;94696.28;5160083;27;20234;-78
2023/05/26 02:28:23;;;;;;;6.25;3.78;;;;;;;12.03;100.00;94690.63;5169192;27;20204;-78
2023/05/26 02:30:50;;;;;;;6.50;3.45;;;;;;;12.06;100.00;94692.69;5168835;27;20195;-78
2023/05/26 02:33:16;;;;;;;6.22;3.90;;;;;;;12.05;100.00;94693.81;5169252;27;20282;-78
2023/05/26 02:35:45;;;;;;;4.43;3.30;;;;;;;12.08;100.00;94695.84;5168560;27;20283;-79
2023/05/26 02:38:11;;;;;;;5.07;3.17;;;;;;;12.09;100.00;94692.00;5168954;27;20199;-78
2023/05/26 02:40:38;;;;;;;9.55;3.80;;;;;;;11.92;100.00;94692.19;5168531;27;20192;-78
2023/05/26 02:43:05;;;;;;;5.53;4.00;;;;;;;11.95;100.00;94694.22;5168627;27;20196;-78
2023/05/26 02:45:32;;;;;;;5.57;4.00;;;;;;;12.06;100.00;94689.16;5168079;27;20235;-78
2023/05/26 02:47:59;;;;;;;5.82;4.00;;;;;;;11.90;100.00;94688.22;5168478;27;20177;-78
2023/05/26 02:50:25;;;;;;;5.97;3.90;;;;;;;12.00;100.00;94688.59;5167817;27;20188;-76
2023/05/26 02:52:54;;;;;;;5.55;4.05;;;;;;;12.02;100.00;94685.56;5168045;27;20195;-76
2023/05/26 02:55:21;;;;;;;11.05;4.05;;;;;;;12.00;100.00;94691.31;5167730;27;20196;-77
2023/05/26 02:57:48;;;;;;;8.23;4.07;;;;;;;12.14;100.00;94687.50;5153412;27;20245;-77
2023/05/26 03:00:15;;;;;;;5.45;3.90;;;;;;;12.28;100.00;94690.72;5153764;27;20201;-78
2023/05/26 03:02:42;;;;;;;6.15;4.18;;;;;;;12.27;100.00;94692.63;5152878;27;20203;-77
2023/05/26 03:05:09;;;;;;;4.97;3.88;;;;;;;12.29;100.00;94697.75;5154502;27;20623;-77
2023/05/26 03:07:36;;;;;;;9.27;3.83;;;;;;;12.33;100.00;94701.34;5154267;27;20212;-76
2023/05/26 03:10:05;;;;;;;7.00;3.97;;;;;;;12.13;100.00;94707.66;5154138;27;20200;-77
2023/05/26 03:12:32;;;;;;;6.25;4.50;;;;;;;12.21;100.00;94712.19;5151001;27;20272;-77
2023/05/26 03:14:59;;;;;;;14.25;4.65;;;;;;;12.36;100.00;94716.97;5153997;27;20295;-77
2023/05/26 03:17:27;;;;;;;8.38;3.88;;;;;;;12.65;100.00;94708.66;5153781;27;20380;-77
2023/05/26 03:19:55;;;;;;;8.13;5.00;;;;;;;13.15;100.00;94711.06;5153297;27;20200;-76
2023/05/26 03:22:25;;;;;;;6.32;4.15;;;;;;;13.47;100.00;94706.59;5152947;27;20200;-76
2023/05/26 03:24:52;;;;;;;8.02;4.53;;;;;;;13.66;100.00;94714.16;5150969;27;20234;-75
2023/05/26 03:27:22;;;;;;;6.35;3.97;;;;;;;13.50;100.00;94727.69;5153326;27;20553;-75
2023/05/26 03:29:49;;;;;;;7.13;3.90;;;;;;;13.43;100.00;94727.47;5153057;27;20831;-75
2023/05/26 03:32:16;;;;;;;4.22;3.42;;;;;;;13.24;100.00;94724.56;5152766;27;20237;-79
2023/05/26 03:34:44;;;;;;;6.07;4.20;;;;;;;12.80;100.00;94739.81;5153849;27;20275;-77
2023/05/26 03:37:11;;;;;;;6.40;4.13;;;;;;;12.96;100.00;94718.19;5144824;27;20200;-76
2023/05/26 03:39:38;;;;;;;5.80;4.10;;;;;;;12.91;100.00;94719.19;5152570;27;20611;-77
2023/05/26 03:42:06;;;;;;;6.22;4.47;;;;;;;12.81;100.00;94725.88;5153584;27;20723;-77
2023/05/26 03:44:34;;;;;;;7.38;4.68;;;;;;;12.93;100.00;94727.81;5153423;27;20192;-77
2023/05/26 03:47:01;;;;;;;8.60;4.88;;;;;;;12.87;100.00;94741.97;5152961;27;20252;-76
2023/05/26 03:49:28;;;;;;;14.52;7.70;;;;;;;13.05;100.00;94724.28;5153617;27;20637;-77
2023/05/26 03:51:55;;;;;;;8.18;4.78;;;;;;;13.13;100.00;94723.38;5153623;27;20200;-77
2023/05/26 03:54:21;;;;;;;5.63;4.63;;;;;;;12.98;100.00;94726.81;5150473;27;20197;-78
2023/05/26 03:56:48;;;;;;;9.43;5.60;;;;;;;13.32;100.00;94720.91;5150638;27;20216;-76
2023/05/26 03:59:15;;;;;;;16.92;5.75;;;;;;;13.71;100.00;94721.28;5151777;27;20661;-76
2023/05/26 04:01:43;;;;;;;7.85;4.90;;;;;;;14.13;100.00;94722.47;5152357;27;20569;-76
2023/05/26 04:04:10;;;;;;;7.75;5.18;;;;;;;14.67;100.00;94713.81;5151708;27;20538;-76
2023/05/26 04:06:38;;;;;;;9.30;5.47;;;;;;;16.05;97.22;94705.28;5140618;27;20232;-76
2023/05/26 04:09:05;;;;;;;9.18;4.97;;;;;;;18.01;87.45;94698.34;5151450;27;20200;-78
2023/05/26 04:11:32;;;;;;;5.47;4.32;;;;;;;19.22;83.62;94694.88;5147694;27;20200;-75
2023/05/26 04:13:59;;;;;;;7.20;4.53;;;;;;;20.74;80.05;94683.06;5151477;27;20197;-76
2023/05/26 04:16:25;;;;;;;6.03;4.30;;;;;;;21.77;72.57;94677.53;5138385;27;20207;-76
2023/05/26 04:18:54;;;;;;;5.63;5.05;;;;;;;22.64;64.20;94681.16;5134392;27;20574;-76
2023/05/26 04:21:21;;;;;;;9.30;5.00;;;;;;;23.03;65.19;94674.63;5151190;27;20211;-76
2023/05/26 04:23:51;;;;;;;5.75;4.43;;;;;;;22.78;61.88;94685.84;5148262;27;20572;-76
2023/05/26 04:26:18;;;;;;;5.88;3.95;;;;;;;22.62;64.27;94685.50;5151927;27;20217;-75
2023/05/26 04:28:45;;;;;;;5.45;4.00;;;;;;;23.13;60.52;94684.81;5131286;27;20239;-76
2023/05/26 04:31:16;;;;;;;6.20;4.63;;;;;;;23.05;64.36;94686.06;5130848;27;20208;-76
2023/05/26 04:33:44;;;;;;;6.90;4.93;;;;;;;22.51;66.30;94682.81;5150471;27;20202;-77
2023/05/26 04:36:16;;;;;;;7.40;4.20;;;;;;;22.02;63.13;94683.00;5151814;27;20626;-76
2023/05/26 04:38:47;;;;;;;5.55;4.38;;;;;;;21.55;67.16;94696.91;5152550;27;20571;-76
2023/05/26 04:41:15;;;;;;;5.72;4.55;;;;;;;21.14;67.86;94702.00;5151863;27;20200;-76
2023/05/26 04:43:43;;;;;;;6.20;5.28;;;;;;;20.42;69.72;94705.78;5141886;27;20291;-76
2023/05/26 04:46:10;;;;;;;8.95;4.75;;;;;;;19.67;71.56;94712.91;5149337;27;20235;-77
2023/05/26 04:48:37;;;;;;;6.30;3.92;;;;;;;20.20;70.17;94698.63;5152303;27;20204;-76
2023/05/26 04:51:05;;;;;;;7.18;4.47;;;;;;;20.29;70.14;94690.78;5151838;27;20218;-76
2023/05/26 04:53:34;;;;;;;8.75;4.72;;;;;;;20.90;67.79;94697.25;5151533;27;20295;-76
2023/05/26 04:56:02;;;;;;;11.70;4.35;;;;;;;20.70;68.94;94693.28;5151938;27;20570;-76
2023/05/26 04:58:28;;;;;;;10.02;4.85;;;;;;;21.37;67.68;94687.06;5151488;27;20752;-76
2023/05/26 05:00:56;;;;;;;4.80;3.75;;;;;;;21.51;65.21;94690.59;5132536;27;20197;-77
2023/05/26 05:03:22;;;;;;;9.38;4.70;;;;;;;21.39;65.81;94690.22;5130847;27;20209;-76
2023/05/26 05:05:49;;;;;;;8.43;4.70;;;;;;;21.84;64.69;94681.09;5130650;27;20659;-76
2023/05/26 05:08:17;;;;;;;7.18;4.18;;;;;;;22.62;62.72;94683.53;5130478;27;20220;-76
2023/05/26 05:10:45;;;;;;;5.43;3.80;;;;;;;22.47;61.84;94682.03;5137433;27;20298;-77
2023/05/26 05:13:12;;;;;;;5.13;3.60;;;;;;;23.15;60.78;94682.41;5151095;27;20718;-76
2023/05/26 05:15:39;;;;;;;12.02;5.57;;;;;;;23.67;58.02;94690.69;5148539;27;20224;-77
2023/05/26 05:18:06;;;;;;;4.70;4.18;;;;;;;23.37;58.22;94683.81;5139828;27;20258;-77
2023/05/26 05:20:32;;;;;;;9.48;4.60;;;;;;;21.90;61.99;94682.22;5151338;27;20211;-77
2023/05/26 05:22:59;;;;;;;6.00;4.63;;;;;;;22.06;62.22;94683.78;5150457;27;20196;-77
2023/05/26 05:25:26;;;;;;;5.22;4.50;;;;;;;22.44;61.33;94685.59;5136358;27;20212;-76
2023/05/26 05:27:54;;;;;;;6.28;4.18;;;;;;;23.55;58.27;94688.44;5150452;27;20708;-77
2023/05/26 05:30:22;;;;;;;5.72;4.53;;;;;;;24.81;54.62;94681.84;5151462;27;20227;-78
2023/05/26 05:32:49;;;;;;;5.60;3.63;;;;;;;25.31;51.07;94676.34;5152098;27;20207;-78
2023/05/26 05:35:15;;;;;;;8.68;4.57;;;;;;;26.23;49.12;94670.38;5154307;27;20243;-78
2023/05/26 05:37:42;;;;;;;6.68;4.95;;;;;;;25.95;49.81;94683.59;5152179;27;20208;-77
2023/05/26 05:40:10;;;;;;;9.73;5.10;;;;;;;25.96;49.42;94687.97;5150748;27;20199;-79
2023/05/26 05:42:37;;;;;;;9.55;5.28;;;;;;;25.90;50.16;94686.09;5151087;27;20208;-81
2023/05/26 05:45:06;;;;;;;12.82;4.80;;;;;;;25.82;51.71;94689.00;5150346;27;20204;-77
2023/05/26 05:47:33;;;;;;;10.27;4.03;;;;;;;25.83;48.89;94692.56;5147998;27;20224;-78
2023/05/26 05:50:00;;;;;;;7.07;3.95;;;;;;;27.10;46.71;94689.19;5130576;27;20208;-79
2023/05/26 05:52:27;;;;;;;7.15;4.30;;;;;;;28.08;44.57;94689.94;5146342;27;20226;-78
2023/05/26 05:54:54;;;;;;;5.80;4.25;;;;;;;26.61;46.07;94691.06;5151311;27;20200;-77
2023/05/26 05:57:20;;;;;;;7.25;4.88;;;;;;;26.54;47.41;94691.19;5149573;27;20220;-77
2023/05/26 05:59:47;;;;;;;6.57;4.00;;;;;;;26.51;47.96;94681.72;5150529;27;20193;-76
2023/05/26 06:02:15;;;;;;;8.90;5.07;;;;;;;26.25;49.13;94679.84;5146794;27;20814;-76
2023/05/26 06:04:42;;;;;;;9.13;5.00;;;;;;;25.13;51.56;94689.72;5149110;27;20196;-76
2023/05/26 06:07:09;;;;;;;8.23;5.20;;;;;;;26.53;49.63;94678.50;5147103;27;20227;-74
2023/05/26 06:09:36;;;;;;;6.78;5.00;;;;;;;27.49;47.68;94685.47;5150219;27;20299;-76
2023/05/26 06:12:03;;;;;;;4.97;4.47;;;;;;;28.81;44.80;94682.00;5150647;27;20212;-74
2023/05/26 06:14:29;;;;;;;7.65;4.78;;;;;;;26.85;48.05;94694.50;5150373;27;20284;-75
2023/05/26 06:16:56;;;;;;;7.78;4.55;;;;;;;28.09;45.55;94690.72;5149950;27;20242;-77
2023/05/26 06:19:24;;;;;;;9.48;5.05;;;;;;;29.04;44.61;94681.66;5150380;27;20207;-75
2023/05/26 06:21:51;;;;;;;7.13;4.70;;;;;;;29.08;42.94;94681.56;5150553;27;20212;-75
2023/05/26 06:24:18;;;;;;;5.63;4.82;;;;;;;29.57;41.25;94680.00;5150448;27;20239;-75
2023/05/26 06:26:45;;;;;;;8.98;4.93;;;;;;;28.73;43.91;94683.38;5149850;27;20256;-73
2023/05/26 06:29:11;;;;;;;10.35;5.18;;;;;;;28.29;44.11;94694.97;5150277;27;20487;-74
2023/05/26 06:31:39;;;;;;;8.15;5.07;;;;;;;27.68;44.89;94702.53;5151478;27;20200;-75
2023/05/26 06:34:05;;;;;;;5.90;4.68;;;;;;;28.18;44.97;94688.91;5153998;27;20200;-76
2023/05/26 06:36:33;;;;;;;8.48;6.30;;;;;;;28.59;44.22;94695.72;5137961;27;20227;-76
2023/05/26 06:39:00;;;;;;;8.05;6.30;;;;;;;27.53;46.65;94707.66;5153725;27;20208;-75
2023/05/26 06:41:27;;;;;;;9.00;6.53;;;;;;;27.95;45.47;94697.47;5148111;27;20261;-75
2023/05/26 06:43:55;;;;;;;8.90;6.28;;;;;;;27.68;45.14;94703.34;5131757;27;20212;-74
2023/05/26 06:46:22;;;;;;;8.30;6.10;;;;;;;28.93;43.66;94695.16;5132080;27;20294;-74
2023/05/26 06:48:48;;;;;;;8.35;6.05;;;;;;;29.51;42.75;94692.97;5132579;27;20220;-75
2023/05/26 06:51:15;;;;;;;8.18;7.00;;;;;;;27.38;45.50;94707.22;5132659;27;20205;-74
2023/05/26 06:53:43;;;;;;;10.30;6.25;;;;;;;28.16;46.02;94696.88;5133173;27;20207;-75
2023/05/26 06:56:10;;;;;;;9.88;6.50;;;;;;;28.75;43.66;94698.44;5132958;27;20225;-75
2023/05/26 06:58:37;;;;;;;7.78;6.10;;;;;;;29.69;41.06;94681.97;5138745;27;20199;-75
2023/05/26 07:01:05;;;;;;;8.65;5.47;;;;;;;30.42;41.50;94693.06;5147068;27;20256;-75
2023/05/26 07:03:32;;;;;;;7.20;6.47;;;;;;;30.70;40.22;94688.47;5132445;27;20677;-76
2023/05/26 07:05:59;;;;;;;13.48;7.18;;;;;;;31.13;39.42;94692.47;5147584;27;20647;-75
2023/05/26 07:08:26;;;;;;;7.78;6.13;;;;;;;30.12;40.52;94691.72;5153080;27;20288;-75
2023/05/26 07:10:54;;;;;;;7.60;5.65;;;;;;;30.66;40.93;94696.19;5153861;27;20227;-74
2023/05/26 07:13:21;;;;;;;7.72;6.38;;;;;;;31.03;38.70;94681.19;5153345;27;20209;-75
2023/05/26 07:15:48;;;;;;;7.30;6.18;;;;;;;31.74;38.14;94684.00;5153249;27;20204;-75
2023/05/26 07:18:15;;;;;;;11.35;6.85;;;;;;;29.05;41.45;94688.03;5152816;27;20238;-74
2023/05/26 07:20:42;;;;;;;11.18;6.95;;;;;;;29.75;42.19;94684.22;5131972;27;20205;-75
2023/05/26 07:23:09;;;;;;;9.50;5.75;;;;;;;30.88;39.78;94688.59;5132350;27;20197;-76
2023/05/26 07:25:35;;;;;;;10.02;5.93;;;;;;;30.39;39.26;94689.16;5132186;27;20228;-75
2023/05/26 07:28:04;;;;;;;7.63;5.75;;;;;;;29.04;41.34;94697.63;5132300;27;20239;-75
2023/05/26 07:30:30;;;;;;;10.75;6.13;;;;;;;29.29;41.51;94697.63;5132506;27;20224;-75
2023/05/26 07:32:57;;;;;;;8.55;6.28;;;;;;;28.97;42.30;94690.25;5133937;27;20265;-77
2023/05/26 07:35:24;;;;;;;8.85;6.05;;;;;;;27.61;45.08;94705.53;5143615;27;20554;-75
2023/05/26 07:37:51;;;;;;;8.98;6.65;;;;;;;28.30;43.73;94702.09;5131929;27;20231;-75
2023/05/26 07:40:18;;;;;;;8.23;6.20;;;;;;;28.24;43.14;94703.88;5131903;27;20204;-74
2023/05/26 07:42:44;;;;;;;7.07;5.57;;;;;;;27.81;44.30;94695.84;5131628;27;20307;-74
2023/05/26 07:45:13;;;;;;;10.05;6.00;;;;;;;27.78;48.04;94695.91;5141349;27;20283;-75
2023/05/26 07:47:40;;;;;;;14.27;7.07;;;;;;;28.25;44.59;94693.50;5152350;27;20227;-76
2023/05/26 07:50:08;;;;;;;11.43;7.10;;;;;;;27.32;46.01;94706.19;5152702;27;20204;-78
2023/05/26 07:52:34;;;;;;;12.35;9.15;;;;;;;26.08;50.21;94698.44;5152036;27;20208;-76
2023/05/26 07:55:01;;;;;;;12.93;8.50;;;;;;;25.05;52.55;94704.88;5151911;27;20205;-77
2023/05/26 07:57:28;;;;;;;10.88;8.82;;;;;;;24.93;52.89;94702.66;5148869;27;20251;-74
2023/05/26 07:59:55;;;;;;;12.07;8.43;;;;;;;24.41;55.29;94702.97;5148285;27;20208;-76
2023/05/26 08:02:23;;;;;;;16.52;9.30;;;;;;;25.26;53.23;94699.03;5151973;27;20244;-77
2023/05/26 08:04:50;;;;;;;13.32;7.85;;;;;;;25.20;53.53;94686.84;5152289;27;20223;-75
2023/05/26 08:07:17;;;;;;;11.07;7.95;;;;;;;24.30;55.36;94694.78;5133968;27;20266;-75
2023/05/26 08:09:44;;;;;;;10.80;7.68;;;;;;;23.86;57.37;94701.19;5142372;27;20208;-77
2023/05/26 08:12:11;;;;;;;13.25;7.65;;;;;;;25.24;52.81;94690.34;5151985;27;20208;-78
2023/05/26 08:14:37;;;;;;;11.18;7.88;;;;;;;26.23;49.44;94681.50;5151688;27;20200;-76
2023/05/26 08:17:04;;;;;;;10.10;6.38;;;;;;;26.88;46.52;94682.53;5151961;27;20732;-76
2023/05/26 08:19:33;;;;;;;9.35;6.95;;;;;;;26.32;49.00;94679.75;5140744;27;20204;-76
2023/05/26 08:21:59;;;;;;;11.90;9.50;;;;;;;25.23;51.38;94690.75;5135690;27;20208;-75
2023/05/26 08:24:26;;;;;;;9.43;7.88;;;;;;;25.24;51.78;94684.81;5152133;27;20200;-75
2023/05/26 08:26:53;;;;;;;17.15;8.02;;;;;;;25.09;51.72;94677.91;5152019;27;20243;-76
2023/05/26 08:29:22;;;;;;;10.43;7.40;;;;;;;24.86;50.08;94677.84;5151763;27;20201;-74
2023/05/26 08:31:49;;;;;;;10.00;7.03;;;;;;;24.74;51.19;94674.41;5151373;27;20254;-77
2023/05/26 08:34:16;;;;;;;10.98;6.45;;;;;;;25.37;51.02;94665.56;5151587;27;20566;-75
2023/05/26 08:36:44;;;;;;;7.65;5.25;;;;;;;25.57;48.84;94660.06;5151468;27;20224;-76
2023/05/26 08:39:11;;;;;;;5.82;5.13;;;;;;;26.00;47.51;94660.09;5151584;27;20215;-76
2023/05/26 08:41:44;;;;;;;7.65;6.18;;;;;;;25.44;48.59;94657.13;5151601;27;20215;-77
2023/05/26 08:44:13;;;;;;;8.25;5.72;;;;;;;24.89;50.81;94638.19;5152039;27;20207;-76
2023/05/26 08:46:40;;;;;;;11.27;6.38;;;;;;;24.41;51.16;94664.19;5151296;27;20240;-75
2023/05/26 08:49:09;;;;;;;9.68;6.63;;;;;;;25.03;50.62;94662.94;5151591;27;20248;-77
2023/05/26 08:51:40;;;;;;;7.65;6.30;;;;;;;25.95;49.63;94666.94;5150909;27;20666;-74
2023/05/26 08:54:08;;;;;;;12.15;8.40;;;;;;;25.34;50.43;94666.41;5151064;27;20238;-75
2023/05/26 08:56:35;;;;;;;10.07;7.80;;;;;;;24.16;54.83;94672.00;5151286;27;20236;-76
2023/05/26 08:59:03;;;;;;;10.20;7.50;;;;;;;23.98;56.66;94670.22;5148136;27;20197;-78
2023/05/26 09:01:30;;;;;;;9.68;7.53;;;;;;;23.45;57.11;94676.25;5129508;27;20201;-78
2023/05/26 09:03:57;;;;;;;11.80;7.65;;;;;;;23.33;58.59;94682.28;5129636;27;20205;-75
2023/05/26 09:06:23;;;;;;;10.80;7.85;;;;;;;22.43;61.82;94686.78;5147259;27;20224;-75
2023/05/26 09:08:50;;;;;;;11.10;8.23;;;;;;;22.11;63.43;94677.88;5150380;27;20252;-76
2023/05/26 09:11:24;;;;;;;9.38;8.10;;;;;;;22.31;65.33;94673.44;5150725;27;20223;-77
2023/05/26 09:13:53;;;;;;;13.88;8.27;;;;;;;22.58;63.96;94671.72;5151327;27;20199;-77
2023/05/26 09:16:24;;;;;;;11.75;8.23;;;;;;;22.59;62.71;94667.78;5150788;27;20272;-77
2023/05/26 09:18:57;;;;;;;10.02;6.97;;;;;;;22.87;58.94;94661.31;5150803;27;20465;-75
2023/05/26 09:21:26;;;;;;;8.73;6.78;;;;;;;23.22;59.69;94659.47;5150307;27;20191;-79
2023/05/26 09:23:55;;;;;;;9.85;7.20;;;;;;;23.35;60.27;94650.28;5144648;27;20299;-79
2023/05/26 09:26:28;;;;;;;9.35;6.65;;;;;;;23.61;57.91;94656.38;5129615;27;20226;-78
2023/05/26 09:28:55;;;;;;;8.80;6.88;;;;;;;24.20;56.12;94656.09;5130372;27;20197;-84
2023/05/26 09:31:22;;;;;;;7.28;6.57;;;;;;;23.74;56.01;94668.50;5141876;27;20934;-79
2023/05/26 09:33:49;;;;;;;10.18;6.80;;;;;;;23.55;58.29;94671.84;5139759;27;20215;-78
2023/05/26 09:36:16;;;;;;;8.13;6.35;;;;;;;23.63;58.06;94667.81;5149511;27;20227;-78
2023/05/26 09:38:43;;;;;;;9.68;5.85;;;;;;;23.76;54.88;94662.56;5149159;27;20701;-78
2023/05/26 09:41:10;;;;;;;7.25;5.75;;;;;;;23.88;56.71;94668.34;5151139;27;20268;-80
2023/05/26 09:43:39;;;;;;;11.10;5.72;;;;;;;24.39;53.81;94663.81;5150676;27;20211;-78
2023/05/26 09:46:08;;;;;;;9.90;6.40;;;;;;;24.92;53.20;94651.19;5150548;27;20606;-76
2023/05/26 09:48:36;;;;;;;6.80;5.28;;;;;;;24.25;56.16;94658.47;5150942;27;20236;-81
2023/05/26 09:51:02;;;;;;;9.02;6.00;;;;;;;23.90;55.47;94654.91;5146741;27;20231;-77
2023/05/26 09:53:29;;;;;;;8.10;6.07;;;;;;;23.37;56.93;94660.94;5130046;27;20201;-80
2023/05/26 09:56:01;;;;;;;6.63;4.53;;;;;;;23.22;56.56;94665.78;5130041;27;20200;-79
2023/05/26 09:58:29;;;;;;;8.35;5.45;;;;;;;23.01;57.58;94660.41;5134362;27;20212;-78
2023/05/26 10:00:59;;;;;;;10.70;5.90;;;;;;;22.59;58.64;94673.28;5145467;27;20288;-81
2023/05/26 10:03:28;;;;;;;6.63;5.20;;;;;;;22.98;57.76;94658.47;5129564;27;20571;-78
2023/05/26 10:05:56;;;;;;;8.75;6.20;;;;;;;22.54;62.40;94670.97;5144387;27;20690;-78
2023/05/26 10:08:23;;;;;;;7.05;6.13;;;;;;;22.21;63.57;94668.75;5154195;27;20572;-79
2023/05/26 10:10:51;;;;;;;7.57;5.90;;;;;;;22.02;65.11;94666.47;5154967;27;20558;-84
2023/05/26 10:13:18;;;;;;;9.10;5.28;;;;;;;21.88;65.91;94668.03;5153660;27;20203;-79
2023/05/26 10:15:46;;;;;;;8.38;6.15;;;;;;;21.67;66.37;94668.13;5154166;27;20678;-78
2023/05/26 10:18:14;;;;;;;9.00;5.95;;;;;;;22.19;66.78;94654.56;5154490;27;20234;-82
2023/05/26 10:20:45;;;;;;;11.45;6.57;;;;;;;22.49;66.84;94657.56;5154737;27;20204;-79
2023/05/26 10:23:19;;;;;;;5.43;4.80;;;;;;;21.57;65.98;94679.97;5154714;27;20196;-81
2023/05/26 10:25:56;;;;;;;5.53;4.00;;;;;;;21.04;63.13;94679.97;5154541;27;20560;-76
2023/05/26 10:28:30;;;;;;;6.95;4.47;;;;;;;21.03;64.50;94668.16;5154233;27;20280;-79
2023/05/26 10:31:00;;;;;;;4.50;4.10;;;;;;;20.48;63.69;94660.22;5154176;27;20563;-84
2023/05/26 10:33:39;;;;;;;4.95;3.58;;;;;;;20.37;65.04;94664.09;5154322;27;20659;-81
2023/05/26 10:36:08;;;;;;;6.25;3.97;;;;;;;20.04;64.64;94662.41;5154730;27;20204;-83
2023/05/26 10:38:38;;;;;;;3.58;2.50;;;;;;;19.68;65.12;94664.97;5153917;27;20707;-83
2023/05/26 10:41:11;;;;;;;4.75;3.45;;;;;;;19.62;63.57;94663.78;5140628;27;20676;-82
2023/05/26 10:43:38;;;;;;;10.02;3.22;;;;;;;19.75;65.57;94659.53;5154255;27;20374;-80
2023/05/26 10:46:07;;;;;;;5.97;2.70;;;;;;;19.72;64.85;94668.53;5154038;27;20246;-81
2023/05/26 10:48:40;;;;;;;5.72;3.42;;;;;;;19.65;66.73;94656.72;5153566;27;20215;-78
2023/05/26 10:51:15;;;;;;;5.18;3.63;;;;;;;19.20;69.92;94668.97;5154124;27;20204;-83
2023/05/26 10:53:43;;;;;;;5.68;3.08;;;;;;;18.93;71.76;94655.41;5153719;27;20658;-79
2023/05/26 10:56:12;;;;;;;5.85;3.72;;;;;;;18.93;71.77;94658.16;5153462;27;20200;-79
2023/05/26 10:58:41;;;;;;;6.55;3.65;;;;;;;18.63;74.15;94652.78;5153723;27;20422;-79
2023/05/26 11:01:15;;;;;;;4.88;3.05;;;;;;;18.79;75.93;94656.09;5133978;27;20737;-80
2023/05/26 11:03:44;;;;;;;4.32;3.42;;;;;;;18.66;73.94;94654.00;5133608;27;20690;-81
2023/05/26 11:06:13;;;;;;;9.57;4.80;;;;;;;18.93;77.12;94654.63;5149617;27;20220;-82
2023/05/26 11:08:41;;;;;;;6.40;3.95;;;;;;;19.24;80.32;94650.56;5153744;27;20275;-82
2023/05/26 11:11:09;;;;;;;6.97;3.95;;;;;;;19.39;78.35;94646.72;5154009;27;20204;-80
2023/05/26 11:13:44;;;;;;;9.82;4.28;;;;;;;19.88;77.87;94646.22;5153587;27;20211;-82
2023/05/26 11:16:21;;;;;;;4.70;3.28;;;;;;;19.88;73.05;94646.22;5153872;27;20210;-82
2023/05/26 11:18:51;;;;;;;5.30;3.63;;;;;;;20.11;73.51;94640.41;5148343;27;20227;-83
2023/05/26 11:21:20;;;;;;;3.72;3.08;;;;;;;20.44;74.55;94639.38;5133164;27;20257;-83
2023/05/26 11:23:47;;;;;;;7.00;3.42;;;;;;;20.97;69.35;94636.66;5138498;27;20261;-83
2023/05/26 11:26:16;;;;;;;6.47;4.15;;;;;;;21.98;71.60;94625.06;5152943;27;20743;-80
2023/05/26 11:28:44;;;;;;;8.68;4.85;;;;;;;21.76;66.25;94632.63;5153533;27;20257;-85
2023/05/26 11:31:15;;;;;;;9.00;4.68;;;;;;;21.92;65.19;94630.22;5154909;27;20205;-80
2023/05/26 11:33:44;;;;;;;6.95;4.35;;;;;;;22.17;64.91;94626.59;5153735;27;20204;-78
2023/05/26 11:36:14;;;;;;;5.03;3.88;;;;;;;22.05;60.19;94621.53;5153337;27;20292;-79
2023/05/26 11:38:41;;;;;;;6.30;3.15;;;;;;;22.17;60.53;94621.06;5152537;27;20975;-87
2023/05/26 11:41:09;;;;;;;8.00;4.40;;;;;;;21.12;62.21;94618.16;5151756;27;20206;-83
2023/05/26 11:43:37;;;;;;;5.60;4.13;;;;;;;21.05;64.32;94632.72;5154228;27;20235;-83
2023/05/26 11:46:06;;;;;;;6.35;4.22;;;;;;;20.73;65.64;94637.44;5154136;27;20702;-81
2023/05/26 11:48:35;;;;;;;6.55;4.15;;;;;;;20.90;65.90;94637.47;5153140;27;20662;-80
2023/05/26 11:51:06;;;;;;;4.95;3.72;;;;;;;20.93;64.63;94630.34;5149879;27;20205;-78
2023/05/26 11:53:34;;;;;;;3.85;3.22;;;;;;;21.71;59.87;94619.25;5144085;27;20192;-78
2023/05/26 11:56:06;;;;;;;5.38;3.05;;;;;;;21.72;60.61;94623.59;5153217;27;20257;-81
2023/05/26 11:58:35;;;;;;;8.00;2.88;;;;;;;21.27;60.01;94605.97;5152875;27;20245;-82
2023/05/26 12:01:02;;;;;;;3.17;2.88;;;;;;;21.54;56.32;94615.38;5132548;27;20236;-81
2023/05/26 12:03:33;;;;;;;3.42;2.72;;;;;;;21.40;57.60;94598.06;5145687;27;20197;-81
2023/05/26 12:06:14;;;;;;;4.22;3.08;;;;;;;22.03;56.18;94601.81;5140651;27;20232;-77